Time;durP1;ratioP1;P1;durP2;ratioP2;P2;SDS_P1;SDS_P2;PMS_P1;PMS_P2;Temp;Humidity;BMP_temperature;BMP_pressure;BME280_temperature;BME280_humidity;BME280_pressure;Samples;Min_cycle;Max_cycle;Signal;HPM_P1;HPM_P2
2022/04/09 00:00:30;;;;;;;5.90;3.83;;;;;;;15.12;46.81;100554.55;1779163;80;21049;-65
2022/04/09 00:02:58;;;;;;;5.12;3.50;;;;;;;15.07;47.10;100552.11;1778869;81;21054;-65
2022/04/09 00:05:26;;;;;;;6.20;3.40;;;;;;;15.04;47.46;100543.55;1779151;81;21546;-64
2022/04/09 00:07:54;;;;;;;8.68;3.62;;;;;;;15.04;47.47;100544.86;1778892;81;21526;-65
2022/04/09 00:10:21;;;;;;;4.67;3.00;;;;;;;15.06;47.41;100536.47;1779045;81;21026;-65
2022/04/09 00:12:49;;;;;;;7.05;3.47;;;;;;;15.07;47.49;100530.29;1779367;81;20967;-65
2022/04/09 00:15:17;;;;;;;6.25;3.90;;;;;;;15.05;47.56;100521.64;1779472;81;21023;-65
2022/04/09 00:17:47;;;;;;;5.85;3.17;;;;;;;15.04;47.53;100526.06;1779244;81;21519;-65
2022/04/09 00:20:17;;;;;;;9.08;3.50;;;;;;;15.04;47.48;100522.58;1779213;81;21066;-65
2022/04/09 00:22:45;;;;;;;6.17;2.87;;;;;;;15.04;47.40;100521.27;1779374;81;21015;-65
2022/04/09 00:25:15;;;;;;;4.78;2.80;;;;;;;15.02;47.31;100523.94;1781006;80;21026;-65
2022/04/09 00:27:42;;;;;;;4.20;2.70;;;;;;;15.01;47.33;100531.42;1787522;80;21073;-65
2022/04/09 00:30:11;;;;;;;4.62;2.85;;;;;;;14.98;47.68;100533.33;1787160;80;21050;-65
2022/04/09 00:32:39;;;;;;;3.33;2.50;;;;;;;14.95;48.13;100530.38;1787729;80;22425;-65
2022/04/09 00:35:08;;;;;;;3.45;2.62;;;;;;;14.92;48.46;100532.28;1788474;80;21058;-65
2022/04/09 00:37:45;;;;;;;6.83;3.00;;;;;;;14.91;48.76;100526.64;1787630;80;20991;-65
2022/04/09 00:40:13;;;;;;;6.20;2.77;;;;;;;14.92;49.02;100520.50;1768015;80;21019;-64
2022/04/09 00:42:42;;;;;;;5.42;3.00;;;;;;;14.93;49.18;100523.04;1787483;79;21026;-65
2022/04/09 00:45:11;;;;;;;8.40;3.50;;;;;;;14.96;49.54;100534.68;1787732;80;21034;-65
2022/04/09 00:47:41;;;;;;;24.05;6.03;;;;;;;14.99;50.03;100538.49;1737019;81;21078;-65
2022/04/09 00:50:10;;;;;;;10.95;3.62;;;;;;;15.01;50.39;100544.52;1743751;81;21098;-66
2022/04/09 00:52:40;;;;;;;4.17;2.87;;;;;;;15.02;51.07;100548.00;1730491;81;21054;-65
2022/04/09 00:55:09;;;;;;;4.65;3.12;;;;;;;15.02;51.09;100561.10;1746050;81;21034;-65
2022/04/09 00:57:37;;;;;;;10.05;3.87;;;;;;;15.00;50.86;100557.70;1743892;81;21096;-65
2022/04/09 01:00:09;;;;;;;6.70;3.62;;;;;;;14.98;50.76;100557.73;1743979;81;21074;-66
2022/04/09 01:02:42;;;;;;;5.60;3.08;;;;;;;14.98;50.81;100566.08;1738172;81;21025;-66
2022/04/09 01:05:12;;;;;;;5.60;3.70;;;;;;;14.94;50.96;100571.06;1747727;81;21613;-65
2022/04/09 01:07:41;;;;;;;11.73;4.33;;;;;;;14.91;51.11;100564.17;1744497;81;21455;-65
2022/04/09 01:10:10;;;;;;;12.50;6.60;;;;;;;14.90;51.25;100566.87;1751471;81;21101;-66
2022/04/09 01:12:39;;;;;;;11.70;7.05;;;;;;;14.88;51.50;100562.15;1747526;81;21548;-66
2022/04/09 01:15:07;;;;;;;12.25;6.80;;;;;;;14.87;51.71;100559.13;1747207;81;21018;-65
2022/04/09 01:17:36;;;;;;;14.30;8.13;;;;;;;14.86;51.88;100560.88;1746989;81;21524;-65
2022/04/09 01:20:22;;;;;;;20.37;9.25;;;;;;;14.87;52.18;100553.88;1736543;81;21033;-65
2022/04/09 01:22:51;;;;;;;16.23;9.83;;;;;;;14.87;52.51;100548.64;1749473;81;21045;-66
2022/04/09 01:25:19;;;;;;;16.02;11.45;;;;;;;14.87;52.78;100546.02;1741092;81;21058;-65
2022/04/09 01:27:47;;;;;;;14.43;10.63;;;;;;;14.87;52.98;100551.27;1747906;81;21609;-66
2022/04/09 01:30:15;;;;;;;18.77;12.35;;;;;;;14.87;53.19;100552.13;1720035;82;21026;-66
2022/04/09 01:32:44;;;;;;;15.23;11.38;;;;;;;14.87;53.42;100546.02;1741520;81;22203;-65
2022/04/09 01:35:12;;;;;;;15.63;11.33;;;;;;;14.86;53.62;100544.34;1738723;81;21018;-65
2022/04/09 01:37:39;;;;;;;15.65;10.93;;;;;;;14.86;53.94;100544.34;1736811;81;21026;-65
2022/04/09 01:40:09;;;;;;;17.92;10.18;;;;;;;14.87;54.09;100536.86;1740900;81;21093;-66
2022/04/09 01:42:39;;;;;;;13.60;9.63;;;;;;;14.86;54.20;100533.86;1739419;81;21006;-66
2022/04/09 01:45:07;;;;;;;13.30;9.60;;;;;;;14.85;54.30;100529.07;1739698;82;21038;-66
2022/04/09 01:47:36;;;;;;;14.07;9.33;;;;;;;14.83;54.41;100522.19;1738982;81;21078;-66
2022/04/09 01:50:04;;;;;;;12.40;8.70;;;;;;;14.82;54.47;100521.81;1742258;81;21081;-66
2022/04/09 01:52:31;;;;;;;11.68;8.90;;;;;;;14.81;54.47;100522.71;1732901;82;21518;-66
2022/04/09 01:54:59;;;;;;;11.95;9.03;;;;;;;14.79;54.57;100518.00;1732610;82;21034;-66
2022/04/09 01:57:26;;;;;;;12.05;8.90;;;;;;;14.76;54.62;100515.49;1730775;82;21487;-66
2022/04/09 01:59:55;;;;;;;13.40;8.95;;;;;;;14.74;54.72;100508.16;1730403;82;21006;-66
2022/04/09 02:02:22;;;;;;;12.20;8.03;;;;;;;14.72;54.72;100504.30;1756696;81;21479;-66
2022/04/09 02:04:49;;;;;;;7.80;7.00;;;;;;;14.69;54.80;100494.80;1760680;80;21041;-66
2022/04/09 02:07:17;;;;;;;17.12;8.58;;;;;;;14.66;54.86;100493.64;1739070;81;21066;-66
2022/04/09 02:09:45;;;;;;;11.45;7.87;;;;;;;14.65;54.96;100501.57;1758756;81;21486;-66
2022/04/09 02:12:14;;;;;;;9.25;7.28;;;;;;;14.62;54.98;100497.30;1766130;81;21015;-66
2022/04/09 02:14:43;;;;;;;13.00;7.92;;;;;;;14.61;55.03;100492.97;1767886;80;21019;-66
2022/04/09 02:17:09;;;;;;;9.40;7.50;;;;;;;14.58;55.02;100490.50;1764555;81;21042;-66
2022/04/09 02:19:38;;;;;;;11.53;8.23;;;;;;;14.56;55.28;100494.09;1762412;81;21023;-66
2022/04/09 02:22:06;;;;;;;10.55;7.33;;;;;;;14.52;55.33;100492.52;1765167;81;20983;-66
2022/04/09 02:24:33;;;;;;;13.65;8.00;;;;;;;14.49;55.42;100494.80;1765418;81;21022;-66
2022/04/09 02:27:02;;;;;;;13.25;8.28;;;;;;;14.45;55.62;100481.44;1778985;79;21015;-66
2022/04/09 02:29:29;;;;;;;11.97;8.00;;;;;;;14.43;55.64;100481.97;1779597;81;21026;-66
2022/04/09 02:31:58;;;;;;;13.00;7.40;;;;;;;14.40;55.80;100482.11;1779113;81;21078;-66
2022/04/09 02:34:29;;;;;;;8.03;6.87;;;;;;;14.40;55.86;100489.97;1779065;81;20999;-66
2022/04/09 02:36:56;;;;;;;10.35;7.53;;;;;;;14.39;55.98;100490.86;1768913;79;21027;-67
2022/04/09 02:39:22;;;;;;;10.60;7.25;;;;;;;14.38;56.01;100491.80;1778380;81;21058;-66
2022/04/09 02:41:52;;;;;;;11.57;8.05;;;;;;;14.36;56.11;100493.59;1757359;81;21023;-66
2022/04/09 02:44:21;;;;;;;;;;;;;;;14.35;56.17;100489.73;1781860;81;21475;-66
2022/04/09 02:46:47;;;;;;;10.95;7.33;;;;;;;14.34;56.26;100492.80;1749093;82;20141;-66
2022/04/09 02:49:15;;;;;;;9.93;7.50;;;;;;;14.32;56.25;100484.16;1779173;81;21019;-66
2022/04/09 02:51:42;;;;;;;9.48;7.70;;;;;;;14.29;56.26;100486.92;1779137;81;21476;-66
2022/04/09 02:54:15;;;;;;;10.15;7.42;;;;;;;14.28;56.30;100489.58;1779348;81;21491;-67
2022/04/09 02:56:38;;;;;;;13.05;7.67;;;;;;;14.27;56.31;100491.34;1776275;81;20983;-66
2022/04/09 02:59:08;;;;;;;9.78;7.40;;;;;;;14.27;56.35;100494.41;1779262;81;21054;-66
2022/04/09 03:01:35;;;;;;;15.50;6.70;;;;;;;14.25;56.40;100491.86;1779466;79;21061;-66
2022/04/09 03:04:05;;;;;;;10.50;7.08;;;;;;;14.25;56.41;100491.86;1779429;80;21030;-66
2022/04/09 03:06:33;;;;;;;10.90;7.00;;;;;;;14.25;56.38;100485.77;1779169;79;21054;-66
2022/04/09 03:08:59;;;;;;;9.90;7.37;;;;;;;14.24;56.37;100483.59;1753216;81;21030;-66
2022/04/09 03:11:27;;;;;;;9.43;6.67;;;;;;;14.22;56.42;100480.67;1779278;81;21054;-66
2022/04/09 03:13:55;;;;;;;10.55;7.85;;;;;;;14.21;56.37;100482.43;1779966;80;21118;-66
2022/04/09 03:16:22;;;;;;;9.53;6.70;;;;;;;14.21;56.38;100482.43;1779288;81;21014;-66
2022/04/09 03:18:51;;;;;;;10.23;6.78;;;;;;;14.20;56.38;100483.33;1755876;80;21515;-66
2022/04/09 03:21:19;;;;;;;10.63;7.35;;;;;;;14.20;56.41;100485.95;1758506;80;21106;-66
2022/04/09 03:23:48;;;;;;;8.40;6.05;;;;;;;14.20;56.29;100482.50;1779328;81;21031;-66
2022/04/09 03:26:16;;;;;;;10.30;6.30;;;;;;;14.19;56.35;100489.49;1755388;81;21015;-66
2022/04/09 03:28:45;;;;;;;7.70;5.58;;;;;;;14.18;56.33;100502.16;1775959;80;21085;-66
2022/04/09 03:31:12;;;;;;;6.58;5.85;;;;;;;14.18;56.29;100495.63;1779453;81;21511;-66
2022/04/09 03:33:39;;;;;;;8.30;5.97;;;;;;;14.17;56.30;100500.92;1779005;79;21046;-66
2022/04/09 03:36:08;;;;;;;10.45;5.50;;;;;;;14.15;56.27;100491.84;1776266;79;21061;-66
2022/04/09 03:38:35;;;;;;;7.92;5.28;;;;;;;14.12;56.28;100489.33;1778878;79;21019;-67
2022/04/09 03:41:02;;;;;;;9.33;5.60;;;;;;;14.11;56.36;100492.02;1779150;81;21019;-66
2022/04/09 03:43:31;;;;;;;8.20;5.72;;;;;;;14.11;56.30;100490.71;1776099;79;21019;-66
2022/04/09 03:45:58;;;;;;;7.35;5.70;;;;;;;14.10;56.23;100485.92;1747943;82;20996;-66
2022/04/09 03:48:26;;;;;;;10.05;6.25;;;;;;;14.12;56.16;100489.33;1768392;81;20983;-67
2022/04/09 03:50:53;;;;;;;8.48;5.35;;;;;;;14.10;56.20;100492.47;1779158;81;21015;-67
2022/04/09 03:53:20;;;;;;;9.78;6.67;;;;;;;14.11;56.18;100486.78;1779291;81;21015;-66
2022/04/09 03:55:48;;;;;;;7.58;4.97;;;;;;;14.10;56.22;100482.00;1779117;81;21019;-66
2022/04/09 03:58:16;;;;;;;7.62;5.20;;;;;;;14.10;56.16;100482.00;1779177;80;20983;-66
2022/04/09 04:00:45;;;;;;;10.48;4.97;;;;;;;14.10;56.22;100482.00;1779181;79;21503;-66
2022/04/09 04:03:14;;;;;;;7.97;5.37;;;;;;;14.11;56.25;100481.11;1779326;81;21073;-66
2022/04/09 04:05:43;;;;;;;9.50;4.65;;;;;;;14.12;56.26;100484.55;1779036;81;20999;-66
2022/04/09 04:08:10;;;;;;;10.10;5.03;;;;;;;14.12;56.31;100478.87;1779596;79;21523;-66
2022/04/09 04:10:40;;;;;;;12.23;5.30;;;;;;;14.13;56.31;100479.28;1775706;81;21058;-66
2022/04/09 04:13:11;;;;;;;8.13;4.80;;;;;;;14.14;56.35;100474.87;1773047;81;21010;-66
2022/04/09 04:15:42;;;;;;;5.97;4.25;;;;;;;14.15;56.39;100477.45;1779364;81;21495;-66
2022/04/09 04:18:09;;;;;;;8.48;4.55;;;;;;;14.17;56.48;100472.14;1779112;79;21547;-66
2022/04/09 04:20:38;;;;;;;8.65;5.00;;;;;;;14.19;56.52;100473.79;1779332;81;21002;-66
2022/04/09 04:23:06;;;;;;;9.30;4.25;;;;;;;14.21;56.57;100476.34;1779112;81;21053;-66
2022/04/09 04:25:34;;;;;;;8.15;4.70;;;;;;;14.23;56.56;100468.83;1779335;79;21081;-66
2022/04/09 04:28:03;;;;;;;7.20;4.60;;;;;;;14.26;56.57;100472.61;1779285;81;21094;-66
2022/04/09 04:30:31;;;;;;;6.65;4.00;;;;;;;14.28;56.49;100479.97;1779557;81;21019;-66
2022/04/09 04:32:57;;;;;;;9.83;4.50;;;;;;;14.31;56.35;100481.17;1778990;79;21043;-66
2022/04/09 04:35:27;;;;;;;7.47;4.40;;;;;;;14.33;56.43;100471.48;1775941;81;21061;-67
2022/04/09 04:37:54;;;;;;;6.22;3.80;;;;;;;14.35;56.47;100480.58;1779475;81;20975;-67
2022/04/09 04:40:24;;;;;;;7.00;4.10;;;;;;;14.36;56.30;100476.58;1779210;81;21029;-66
2022/04/09 04:42:53;;;;;;;5.97;4.22;;;;;;;14.39;56.32;100483.45;1775790;81;21523;-66
2022/04/09 04:45:20;;;;;;;6.10;4.47;;;;;;;14.40;56.29;100478.19;1779582;81;21022;-66
2022/04/09 04:47:50;;;;;;;8.00;4.42;;;;;;;14.43;56.15;100475.42;1779117;81;21091;-66
2022/04/09 04:50:19;;;;;;;6.22;4.10;;;;;;;14.46;56.21;100483.16;1758936;81;21011;-66
2022/04/09 04:52:47;;;;;;;7.12;4.28;;;;;;;14.48;56.11;100478.71;1779226;81;21053;-66
2022/04/09 04:55:15;;;;;;;6.35;4.25;;;;;;;14.51;55.99;100481.19;1779419;81;21042;-66
2022/04/09 04:57:47;;;;;;;5.12;3.50;;;;;;;14.53;55.96;100483.73;1779188;79;21094;-66
2022/04/09 05:00:22;;;;;;;10.23;3.87;;;;;;;14.54;55.95;100483.69;1755102;81;21090;-67
2022/04/09 05:02:51;;;;;;;8.45;4.17;;;;;;;14.56;55.88;100481.00;1720591;82;21045;-66
2022/04/09 05:05:21;;;;;;;7.35;3.70;;;;;;;14.59;55.88;100472.55;1729412;82;21041;-66
2022/04/09 05:07:50;;;;;;;7.25;3.90;;;;;;;14.62;55.82;100469.81;1737024;82;21077;-66
2022/04/09 05:10:21;;;;;;;;;;;;;;;14.66;55.71;100463.97;1733679;82;21038;-66
2022/04/09 05:12:52;;;;;;;7.83;4.33;;;;;;;14.69;55.59;100463.86;1732600;82;20378;-65
2022/04/09 05:15:19;;;;;;;8.10;4.22;;;;;;;14.72;55.50;100468.95;1727065;82;21494;-66
2022/04/09 05:17:49;;;;;;;7.78;3.10;;;;;;;14.75;55.46;100467.97;1731566;82;21070;-66
2022/04/09 05:20:16;;;;;;;8.83;4.25;;;;;;;14.79;55.31;100462.98;1725221;82;21107;-65
2022/04/09 05:22:46;;;;;;;12.70;4.25;;;;;;;14.82;55.21;100462.39;1725179;82;21030;-65
2022/04/09 05:25:16;;;;;;;7.10;4.55;;;;;;;14.86;55.12;100461.82;1732254;82;21077;-65
2022/04/09 05:27:45;;;;;;;6.85;4.03;;;;;;;14.90;55.18;100456.84;1710627;83;21062;-65
2022/04/09 05:30:13;;;;;;;4.62;3.62;;;;;;;14.94;55.06;100447.92;1734613;82;21039;-65
2022/04/09 05:32:44;;;;;;;6.03;3.60;;;;;;;15.01;54.88;100444.09;1730992;82;21011;-65
2022/04/09 05:35:12;;;;;;;5.72;3.85;;;;;;;15.05;54.77;100440.41;1730747;82;21094;-65
2022/04/09 05:37:46;;;;;;;7.60;3.55;;;;;;;15.11;54.74;100437.52;1734987;82;21430;-65
2022/04/09 05:40:15;;;;;;;6.70;3.65;;;;;;;15.17;54.64;100426.30;1732721;82;21085;-65
2022/04/09 05:42:41;;;;;;;3.67;3.25;;;;;;;15.27;54.43;100437.23;1730507;82;21090;-65
2022/04/09 05:45:13;;;;;;;6.60;3.45;;;;;;;15.35;54.11;100433.80;1733273;82;21042;-65
2022/04/09 05:47:45;;;;;;;7.10;3.45;;;;;;;15.43;53.87;100437.77;1721801;82;21027;-65
2022/04/09 05:50:14;;;;;;;5.83;3.85;;;;;;;15.55;53.71;100438.13;1729976;82;21018;-65
2022/04/09 05:52:44;;;;;;;3.90;3.25;;;;;;;15.71;53.56;100437.34;1750301;81;21500;-65
2022/04/09 05:55:11;;;;;;;7.20;3.47;;;;;;;15.91;53.42;100435.91;1762294;81;21003;-65
2022/04/09 05:57:39;;;;;;;5.05;3.30;;;;;;;16.18;52.89;100437.19;1762343;81;21008;-65
2022/04/09 06:00:09;;;;;;;4.83;3.20;;;;;;;16.46;51.92;100429.25;1763831;81;20999;-65
2022/04/09 06:02:44;;;;;;;6.28;3.27;;;;;;;16.67;51.15;100431.64;1764599;81;21015;-65
2022/04/09 06:05:12;;;;;;;8.95;3.33;;;;;;;16.82;50.34;100421.66;1761000;81;21011;-65
2022/04/09 06:07:40;;;;;;;7.78;3.27;;;;;;;16.90;50.00;100425.19;1763817;81;21568;-65
2022/04/09 06:10:08;;;;;;;5.42;3.25;;;;;;;16.97;50.01;100421.31;1758615;81;21031;-64
2022/04/09 06:12:36;;;;;;;12.85;4.25;;;;;;;17.12;50.22;100423.59;1761561;81;21546;-65
2022/04/09 06:15:07;;;;;;;5.65;3.83;;;;;;;17.39;49.50;100428.23;1758313;81;21476;-65
2022/04/09 06:17:39;;;;;;;7.33;3.37;;;;;;;17.71;48.62;100426.45;1759454;81;20992;-65
2022/04/09 06:20:08;;;;;;;5.65;3.30;;;;;;;17.99;47.94;100421.81;1764553;81;20974;-65
2022/04/09 06:22:35;;;;;;;6.15;3.20;;;;;;;18.25;47.27;100424.63;1764289;81;21031;-65
2022/04/09 06:25:02;;;;;;;5.10;2.80;;;;;;;18.44;46.60;100419.16;1763045;81;21066;-64
2022/04/09 06:27:32;;;;;;;5.67;2.75;;;;;;;18.58;46.02;100408.64;1753710;80;21103;-65
2022/04/09 06:30:06;;;;;;;5.00;2.92;;;;;;;18.67;45.93;100416.84;1747579;80;21075;-66
2022/04/09 06:32:33;;;;;;;6.65;3.52;;;;;;;18.76;45.66;100410.16;1743584;82;21003;-65
2022/04/09 06:35:00;;;;;;;9.03;2.77;;;;;;;18.88;45.45;100409.41;1747569;82;21007;-65
2022/04/09 06:37:28;;;;;;;7.95;3.40;;;;;;;19.01;44.86;100410.83;1747642;82;21019;-65
2022/04/09 06:39:56;;;;;;;3.95;2.80;;;;;;;19.07;44.43;100409.13;1734309;82;21048;-66
2022/04/09 06:42:24;;;;;;;8.08;2.87;;;;;;;19.05;44.34;100408.38;1747852;82;21012;-65
2022/04/09 06:45:00;;;;;;;7.55;3.33;;;;;;;19.00;44.30;100412.61;1743030;82;21032;-65
2022/04/09 06:47:29;;;;;;;6.42;2.92;;;;;;;18.94;44.35;100407.72;1735195;82;21040;-65
2022/04/09 06:49:58;;;;;;;6.83;2.77;;;;;;;18.91;44.44;100410.56;1727840;82;21525;-64
2022/04/09 06:52:27;;;;;;;7.92;3.40;;;;;;;18.88;44.54;100404.14;1747492;80;21488;-64
2022/04/09 06:55:04;;;;;;;7.05;3.50;;;;;;;18.86;44.50;100407.34;1741395;80;21048;-64
2022/04/09 06:57:32;;;;;;;6.58;3.42;;;;;;;18.81;44.58;100408.11;1743859;82;20987;-65
2022/04/09 07:00:01;;;;;;;5.17;2.70;;;;;;;18.78;44.57;100413.55;1747587;82;21040;-64
2022/04/09 07:02:31;;;;;;;6.10;3.00;;;;;;;18.76;44.68;100407.53;1747711;82;21498;-65
2022/04/09 07:04:57;;;;;;;7.12;3.58;;;;;;;18.77;44.59;100403.97;1747702;82;21062;-64
2022/04/09 07:07:26;;;;;;;5.25;2.92;;;;;;;18.75;44.64;100407.17;1747923;82;21037;-65
2022/04/09 07:09:55;;;;;;;4.78;3.35;;;;;;;18.75;44.57;100400.58;1747752;82;21015;-65
2022/04/09 07:12:22;;;;;;;9.63;3.58;;;;;;;18.76;44.43;100402.26;1747559;81;21040;-64
2022/04/09 07:14:52;;;;;;;5.20;3.00;;;;;;;18.76;44.35;100402.26;1747769;82;21558;-65
2022/04/09 07:17:20;;;;;;;7.25;3.17;;;;;;;18.75;44.42;100403.22;1728326;82;21027;-64
2022/04/09 07:19:48;;;;;;;6.22;3.47;;;;;;;18.77;44.36;100403.97;1747760;82;21078;-65
2022/04/09 07:22:14;;;;;;;9.83;3.77;;;;;;;18.77;44.36;100403.97;1748170;82;21072;-65
2022/04/09 07:24:41;;;;;;;10.00;3.62;;;;;;;18.77;44.46;100403.97;1747633;82;21034;-65
2022/04/09 07:27:09;;;;;;;8.28;3.00;;;;;;;18.78;44.42;100401.70;1758037;80;21003;-65
2022/04/09 07:29:36;;;;;;;8.10;3.87;;;;;;;18.80;44.43;100405.09;1779280;79;21542;-65
2022/04/09 07:32:03;;;;;;;6.35;3.62;;;;;;;18.82;44.47;100401.88;1779388;81;21023;-65
2022/04/09 07:34:32;;;;;;;8.83;3.35;;;;;;;18.83;44.48;100404.91;1779169;81;20959;-65
2022/04/09 07:36:58;;;;;;;7.00;3.58;;;;;;;18.78;44.41;100408.28;1779187;81;21066;-65
2022/04/09 07:39:26;;;;;;;7.75;3.55;;;;;;;18.73;44.40;100406.87;1779474;80;21015;-65
2022/04/09 07:41:52;;;;;;;6.83;3.52;;;;;;;18.63;44.62;100406.56;1779346;81;21523;-65
2022/04/09 07:44:22;;;;;;;8.13;3.37;;;;;;;18.50;44.76;100405.16;1779333;81;21038;-65
2022/04/09 07:46:50;;;;;;;9.03;4.08;;;;;;;18.37;45.13;100408.10;1779671;81;21054;-65
2022/04/09 07:49:17;;;;;;;5.95;3.20;;;;;;;18.25;45.38;100406.66;1779156;81;21023;-65
2022/04/09 07:51:46;;;;;;;10.00;4.80;;;;;;;18.12;45.70;100406.98;1778962;79;21034;-65
2022/04/09 07:54:13;;;;;;;10.00;3.80;;;;;;;18.01;46.00;100412.03;1779283;79;21503;-64
2022/04/09 07:56:40;;;;;;;7.72;3.70;;;;;;;17.91;46.30;100405.61;1779286;81;21022;-65
2022/04/09 07:59:07;;;;;;;9.08;4.53;;;;;;;17.83;46.55;100412.60;1778848;81;21081;-64
2022/04/09 08:01:34;;;;;;;8.83;4.28;;;;;;;17.77;46.74;100404.59;1779223;81;21027;-65
2022/04/09 08:04:03;;;;;;;6.50;3.90;;;;;;;17.74;46.87;100404.75;1779245;79;21003;-65
2022/04/09 08:06:31;;;;;;;8.18;4.30;;;;;;;17.49;47.51;100403.14;1777216;81;20995;-65
2022/04/09 08:08:58;;;;;;;8.30;4.25;;;;;;;17.44;47.67;100398.55;1779430;79;21547;-65
2022/04/09 08:11:26;;;;;;;10.88;4.47;;;;;;;17.42;47.62;100403.05;1779504;81;21070;-65
2022/04/09 08:13:54;;;;;;;6.75;3.50;;;;;;;17.38;47.78;100393.64;1779149;79;21039;-65
2022/04/09 08:16:21;;;;;;;7.40;3.58;;;;;;;17.35;47.88;100401.68;1779405;80;21015;-65
2022/04/09 08:18:48;;;;;;;6.33;3.45;;;;;;;17.34;47.87;100396.52;1779493;81;21070;-64
2022/04/09 08:21:17;;;;;;;9.90;3.87;;;;;;;17.32;47.99;100407.13;1779406;81;21022;-64
2022/04/09 08:23:47;;;;;;;6.45;3.55;;;;;;;17.30;48.10;100397.16;1779141;81;20979;-64
2022/04/09 08:26:14;;;;;;;8.35;3.83;;;;;;;17.27;48.19;100394.68;1779157;81;21503;-65
2022/04/09 08:28:41;;;;;;;7.47;3.92;;;;;;;17.25;48.26;100392.59;1779251;79;21026;-64
2022/04/09 08:31:09;;;;;;;6.67;3.95;;;;;;;17.24;48.29;100400.13;1779350;79;21031;-65
2022/04/09 08:33:36;;;;;;;6.95;3.62;;;;;;;17.24;48.29;100393.55;1778696;81;21534;-64
2022/04/09 08:36:04;;;;;;;6.15;3.92;;;;;;;17.25;48.31;100393.09;1776515;81;21038;-65
2022/04/09 08:38:31;;;;;;;7.17;3.70;;;;;;;17.23;48.32;100389.20;1776947;79;20983;-64
2022/04/09 08:41:02;;;;;;;8.23;3.67;;;;;;;17.20;48.41;100381.50;1769377;80;21050;-65
2022/04/09 08:43:30;;;;;;;6.50;3.62;;;;;;;17.17;48.46;100386.91;1774316;79;21507;-65
2022/04/09 08:46:02;;;;;;;8.00;3.90;;;;;;;17.13;48.54;100381.44;1765061;81;21034;-66
2022/04/09 08:48:29;;;;;;;13.10;4.22;;;;;;;17.08;48.74;100379.55;1777939;80;21015;-66
2022/04/09 08:50:57;;;;;;;7.40;4.12;;;;;;;17.06;48.71;100382.72;1779034;81;21059;-66
2022/04/09 08:53:24;;;;;;;10.80;4.25;;;;;;;17.01;48.87;100384.73;1754305;81;20995;-65
2022/04/09 08:55:53;;;;;;;6.58;3.60;;;;;;;16.97;48.86;100381.89;1763324;80;21083;-65
2022/04/09 08:58:22;;;;;;;6.62;3.92;;;;;;;16.94;48.95;100376.78;1779122;79;21089;-65
2022/04/09 09:00:49;;;;;;;8.93;3.77;;;;;;;16.92;49.04;100379.96;1779397;81;21003;-66
2022/04/09 09:03:17;;;;;;;4.53;3.30;;;;;;;16.91;49.13;100379.59;1779021;81;21090;-65
2022/04/09 09:05:52;;;;;;;9.38;4.17;;;;;;;16.93;49.13;100377.73;1765602;81;21007;-66
2022/04/09 09:08:16;;;;;;;8.68;3.35;;;;;;;16.94;49.07;100380.27;1772664;81;21053;-65
2022/04/09 09:10:44;;;;;;;6.37;3.75;;;;;;;16.95;48.95;100373.23;1779450;81;21030;-66
2022/04/09 09:13:12;;;;;;;6.58;3.30;;;;;;;16.96;49.05;100363.13;1779315;81;21502;-66
2022/04/09 09:15:52;;;;;;;4.78;3.40;;;;;;;16.97;48.88;100366.98;1770202;80;21043;-65
2022/04/09 09:18:27;;;;;;;7.95;4.05;;;;;;;16.97;48.85;100363.49;1779327;81;21695;-65
2022/04/09 09:20:59;;;;;;;6.25;3.35;;;;;;;16.94;48.88;100357.08;1772803;80;21058;-65
2022/04/09 09:23:30;;;;;;;9.78;3.35;;;;;;;16.92;48.80;100359.79;1738570;82;21004;-65
2022/04/09 09:25:58;;;;;;;;;;;;;;;16.89;48.83;100352.55;1679116;84;21054;-64
2022/04/09 09:28:31;;;;;;;8.90;3.87;;;;;;;16.82;48.88;100345.91;1673783;84;20100;-64
2022/04/09 09:30:58;;;;;;;8.88;3.65;;;;;;;16.75;49.07;100345.42;1673939;85;21109;-64
2022/04/09 09:33:27;;;;;;;7.00;3.62;;;;;;;16.69;49.31;100338.32;1656406;85;21560;-64
2022/04/09 09:35:56;;;;;;;9.58;3.27;;;;;;;16.65;49.44;100335.48;1664769;85;21022;-64
2022/04/09 09:38:27;;;;;;;9.33;3.55;;;;;;;16.63;49.46;100337.34;1676862;85;21042;-64
2022/04/09 09:40:56;;;;;;;12.78;3.70;;;;;;;16.60;49.49;100334.86;1673260;85;21018;-65
2022/04/09 09:43:26;;;;;;;10.23;4.03;;;;;;;16.59;49.67;100329.23;1666582;85;21064;-65
2022/04/09 09:45:54;;;;;;;8.93;3.35;;;;;;;16.58;49.70;100329.69;1671799;85;21525;-65
2022/04/09 09:48:25;;;;;;;6.00;2.70;;;;;;;16.58;49.71;100328.37;1669655;85;21041;-66
2022/04/09 09:50:54;;;;;;;7.45;3.10;;;;;;;16.60;49.81;100325.66;1665835;85;21021;-65
2022/04/09 09:53:33;;;;;;;7.45;3.80;;;;;;;16.62;49.70;100329.05;1663339;85;21550;-65
2022/04/09 09:56:01;;;;;;;8.95;3.85;;;;;;;16.64;49.71;100325.88;1628672;87;21068;-67
2022/04/09 09:58:29;;;;;;;9.78;3.22;;;;;;;16.68;49.63;100316.91;1622524;87;21532;-67
2022/04/09 10:00:59;;;;;;;9.30;3.50;;;;;;;16.72;49.54;100321.06;1631099;87;21141;-65
2022/04/09 10:03:27;;;;;;;9.20;2.70;;;;;;;16.75;49.51;100316.52;1622975;87;21189;-65
2022/04/09 10:05:55;;;;;;;8.10;3.10;;;;;;;16.82;49.50;100310.44;1627728;87;21035;-65
2022/04/09 10:08:22;;;;;;;8.20;2.70;;;;;;;16.88;49.32;100296.97;1625836;87;21087;-65
2022/04/09 10:10:50;;;;;;;8.13;3.17;;;;;;;16.98;49.12;100302.13;1630982;87;21543;-65
2022/04/09 10:13:23;;;;;;;7.85;3.27;;;;;;;17.06;48.84;100292.03;1619883;87;21618;-64
2022/04/09 10:15:52;;;;;;;5.78;2.65;;;;;;;17.15;48.76;100294.13;1632006;87;21543;-65
2022/04/09 10:18:23;;;;;;;13.03;4.03;;;;;;;17.26;48.60;100297.02;1618588;87;21114;-65
2022/04/09 10:23:32;;;;;;;8.83;2.80;;;;;;;17.44;47.71;100285.45;1585154;90;21065;-66
2022/04/09 10:26:00;;;;;;;6.35;2.98;;;;;;;17.48;47.36;100283.48;1589541;89;21129;-64
2022/04/09 10:28:38;;;;;;;12.23;3.30;;;;;;;17.46;47.27;100290.16;1595117;88;21038;-66
2022/04/09 10:31:29;;;;;;;10.90;2.87;;;;;;;17.44;47.24;100286.77;1603661;88;21119;-65
2022/04/09 10:33:57;;;;;;;9.57;3.17;;;;;;;17.43;47.15;100281.14;1564185;91;21074;-64
2022/04/09 10:36:51;;;;;;;8.03;2.85;;;;;;;17.42;47.15;100284.69;1565226;91;21606;-65
2022/04/09 10:39:25;;;;;;;7.90;3.10;;;;;;;17.40;47.14;100286.56;1558130;91;21105;-66
2022/04/09 10:41:54;;;;;;;7.62;3.15;;;;;;;17.40;47.19;100285.70;1565854;91;21514;-65
2022/04/09 10:44:52;;;;;;;12.05;3.83;;;;;;;17.38;47.29;100288.44;1518932;92;21617;-66
2022/04/09 10:47:21;;;;;;;7.37;3.10;;;;;;;17.37;47.29;100284.58;1538271;92;21074;-66
2022/04/09 10:50:07;;;;;;;11.38;3.45;;;;;;;17.34;47.40;100289.55;1538816;92;21058;-66
2022/04/09 10:52:34;;;;;;;6.97;3.17;;;;;;;17.30;47.33;100288.02;1545936;90;21073;-66
2022/04/09 10:55:20;;;;;;;7.33;3.08;;;;;;;17.25;47.57;100279.53;1547809;90;21562;-65
2022/04/09 10:57:51;;;;;;;8.28;3.33;;;;;;;17.23;47.74;100268.25;1569456;90;21120;-65
2022/04/09 11:00:30;;;;;;;12.53;3.83;;;;;;;17.21;47.76;100260.92;1566803;90;21089;-65
2022/04/09 11:03:15;;;;;;;11.60;4.65;;;;;;;17.21;47.84;100266.18;1569702;90;21530;-64
2022/04/09 11:05:43;;;;;;;10.58;3.22;;;;;;;17.21;47.94;100253.03;1523105;93;21071;-64
2022/04/09 11:08:14;;;;;;;9.75;3.62;;;;;;;17.23;47.92;100266.94;1501382;94;21061;-65
2022/04/09 11:10:43;;;;;;;12.00;3.77;;;;;;;17.24;48.03;100267.34;1522078;93;21699;-64
2022/04/09 11:13:12;;;;;;;14.33;3.55;;;;;;;17.25;48.07;100256.36;1521808;94;21100;-64
2022/04/09 11:15:40;;;;;;;10.70;3.83;;;;;;;17.24;47.97;100263.84;1522102;94;21073;-62
2022/04/09 11:18:08;;;;;;;9.15;3.25;;;;;;;17.21;48.04;100253.03;1521963;94;21065;-63
2022/04/09 11:20:37;;;;;;;11.33;3.87;;;;;;;17.20;48.07;100257.92;1557069;91;21034;-64
2022/04/09 11:23:12;;;;;;;10.23;3.37;;;;;;;17.17;48.13;100247.57;1579632;91;21069;-65
2022/04/09 11:25:44;;;;;;;10.35;4.08;;;;;;;17.15;48.31;100245.49;1486970;96;21133;-65
2022/04/09 11:28:17;;;;;;;9.75;3.47;;;;;;;17.14;48.36;100238.56;1491591;96;21705;-65
2022/04/09 11:31:00;;;;;;;10.20;3.60;;;;;;;17.15;48.37;100236.30;1486785;96;21154;-64
2022/04/09 11:33:27;;;;;;;8.15;3.67;;;;;;;17.17;48.26;100231.80;1486318;96;21083;-66
2022/04/09 11:35:55;;;;;;;12.13;3.60;;;;;;;17.20;48.14;100242.15;1490434;96;21668;-67